sensor_id;sensor_type;location;lat;lon;timestamp;temperature;humidity
45463;SHT31;31209;49.456;11.134;2022-07-23T00:00:23;22.02;93.68
45463;SHT31;31209;49.456;11.134;2022-07-23T00:01:24;21.93;93.84
45463;SHT31;31209;49.456;11.134;2022-07-23T00:02:25;21.89;93.82
45463;SHT31;31209;49.456;11.134;2022-07-23T00:03:26;21.9;93.83
45463;SHT31;31209;49.456;11.134;2022-07-23T00:04:27;21.84;94.0
45463;SHT31;31209;49.456;11.134;2022-07-23T00:05:28;21.82;94.1
45463;SHT31;31209;49.456;11.134;2022-07-23T00:06:28;21.76;93.97
45463;SHT31;31209;49.456;11.134;2022-07-23T00:07:29;21.82;93.85
45463;SHT31;31209;49.456;11.134;2022-07-23T00:08:30;21.84;94.23
45463;SHT31;31209;49.456;11.134;2022-07-23T00:09:31;21.84;94.33
45463;SHT31;31209;49.456;11.134;2022-07-23T00:10:33;21.86;94.49
45463;SHT31;31209;49.456;11.134;2022-07-23T00:11:37;21.69;94.42
45463;SHT31;31209;49.456;11.134;2022-07-23T00:12:38;21.67;94.31
45463;SHT31;31209;49.456;11.134;2022-07-23T00:13:39;21.7;94.23
45463;SHT31;31209;49.456;11.134;2022-07-23T00:14:40;21.69;94.27
45463;SHT31;31209;49.456;11.134;2022-07-23T00:15:41;21.67;94.25
45463;SHT31;31209;49.456;11.134;2022-07-23T00:16:41;21.62;94.34
45463;SHT31;31209;49.456;11.134;2022-07-23T00:17:42;21.52;94.28
45463;SHT31;31209;49.456;11.134;2022-07-23T00:18:43;21.39;94.46
45463;SHT31;31209;49.456;11.134;2022-07-23T00:19:44;21.27;94.9
45463;SHT31;31209;49.456;11.134;2022-07-23T00:20:45;21.33;95.1
45463;SHT31;31209;49.456;11.134;2022-07-23T00:21:46;21.33;95.12
45463;SHT31;31209;49.456;11.134;2022-07-23T00:22:47;21.42;95.14
45463;SHT31;31209;49.456;11.134;2022-07-23T00:23:48;21.48;95.39
45463;SHT31;31209;49.456;11.134;2022-07-23T00:24:49;21.48;95.4
45463;SHT31;31209;49.456;11.134;2022-07-23T00:25:50;21.48;95.71
45463;SHT31;31209;49.456;11.134;2022-07-23T00:26:50;21.51;95.91
45463;SHT31;31209;49.456;11.134;2022-07-23T00:27:51;21.52;96.41
45463;SHT31;31209;49.456;11.134;2022-07-23T00:28:52;21.52;96.29
45463;SHT31;31209;49.456;11.134;2022-07-23T00:29:53;21.6;96.06
45463;SHT31;31209;49.456;11.134;2022-07-23T00:30:54;21.59;95.7
45463;SHT31;31209;49.456;11.134;2022-07-23T00:31:55;21.53;95.27
45463;SHT31;31209;49.456;11.134;2022-07-23T00:32:57;21.32;95.63
45463;SHT31;31209;49.456;11.134;2022-07-23T00:33:59;21.21;96.13
45463;SHT31;31209;49.456;11.134;2022-07-23T00:35:00;21.21;96.14
45463;SHT31;31209;49.456;11.134;2022-07-23T00:36:01;21.19;96.35
45463;SHT31;31209;49.456;11.134;2022-07-23T00:37:01;21.22;96.13
45463;SHT31;31209;49.456;11.134;2022-07-23T00:38:03;21.22;95.71
45463;SHT31;31209;49.456;11.134;2022-07-23T00:39:04;21.28;95.75
45463;SHT31;31209;49.456;11.134;2022-07-23T00:40:07;21.25;96.0
45463;SHT31;31209;49.456;11.134;2022-07-23T00:41:08;21.31;96.09
45463;SHT31;31209;49.456;11.134;2022-07-23T00:42:09;21.31;96.13
45463;SHT31;31209;49.456;11.134;2022-07-23T00:43:10;21.33;96.23
45463;SHT31;31209;49.456;11.134;2022-07-23T00:44:15;21.35;96.43
45463;SHT31;31209;49.456;11.134;2022-07-23T00:45:17;21.39;96.57
45463;SHT31;31209;49.456;11.134;2022-07-23T00:46:19;21.45;96.49
45463;SHT31;31209;49.456;11.134;2022-07-23T00:47:20;21.39;96.65
45463;SHT31;31209;49.456;11.134;2022-07-23T00:48:21;21.29;96.46
45463;SHT31;31209;49.456;11.134;2022-07-23T00:49:22;21.18;96.75
45463;SHT31;31209;49.456;11.134;2022-07-23T00:50:24;21.21;96.92
45463;SHT31;31209;49.456;11.134;2022-07-23T00:51:25;21.24;96.8
45463;SHT31;31209;49.456;11.134;2022-07-23T00:52:26;21.28;96.75
45463;SHT31;31209;49.456;11.134;2022-07-23T00:53:27;21.25;96.87
45463;SHT31;31209;49.456;11.134;2022-07-23T00:54:28;21.31;96.86
45463;SHT31;31209;49.456;11.134;2022-07-23T00:55:29;21.33;96.95
45463;SHT31;31209;49.456;11.134;2022-07-23T00:56:30;21.31;97.26
45463;SHT31;31209;49.456;11.134;2022-07-23T00:57:31;21.33;97.16
45463;SHT31;31209;49.456;11.134;2022-07-23T00:58:35;21.28;96.86
45463;SHT31;31209;49.456;11.134;2022-07-23T00:59:37;21.21;97.0
45463;SHT31;31209;49.456;11.134;2022-07-23T01:00:38;21.15;97.26
45463;SHT31;31209;49.456;11.134;2022-07-23T01:01:40;21.14;97.34
45463;SHT31;31209;49.456;11.134;2022-07-23T01:02:41;21.18;97.3
45463;SHT31;31209;49.456;11.134;2022-07-23T01:03:42;21.25;97.36
45463;SHT31;31209;49.456;11.134;2022-07-23T01:04:43;21.27;97.49
45463;SHT31;31209;49.456;11.134;2022-07-23T01:05:44;21.29;97.58
45463;SHT31;31209;49.456;11.134;2022-07-23T01:06:45;21.32;97.44
45463;SHT31;31209;49.456;11.134;2022-07-23T01:07:46;21.38;96.98
45463;SHT31;31209;49.456;11.134;2022-07-23T01:08:47;21.39;96.83
45463;SHT31;31209;49.456;11.134;2022-07-23T01:09:49;21.38;96.68
45463;SHT31;31209;49.456;11.134;2022-07-23T01:10:51;21.41;96.61
45463;SHT31;31209;49.456;11.134;2022-07-23T01:11:54;21.38;96.71
45463;SHT31;31209;49.456;11.134;2022-07-23T01:12:56;21.43;96.86
45463;SHT31;31209;49.456;11.134;2022-07-23T01:13:57;21.42;96.81
45463;SHT31;31209;49.456;11.134;2022-07-23T01:14:59;21.38;96.74
45463;SHT31;31209;49.456;11.134;2022-07-23T01:16:00;21.33;96.77
45463;SHT31;31209;49.456;11.134;2022-07-23T01:17:01;21.32;96.8
45463;SHT31;31209;49.456;11.134;2022-07-23T01:18:03;21.36;96.67
45463;SHT31;31209;49.456;11.134;2022-07-23T01:19:04;21.36;96.61
45463;SHT31;31209;49.456;11.134;2022-07-23T01:20:06;21.38;96.54
45463;SHT31;31209;49.456;11.134;2022-07-23T01:21:08;21.39;96.45
45463;SHT31;31209;49.456;11.134;2022-07-23T01:22:10;21.35;96.63
45463;SHT31;31209;49.456;11.134;2022-07-23T01:23:11;21.36;96.88
45463;SHT31;31209;49.456;11.134;2022-07-23T01:24:13;21.33;96.99
45463;SHT31;31209;49.456;11.134;2022-07-23T01:25:14;21.36;97.11
45463;SHT31;31209;49.456;11.134;2022-07-23T01:26:15;21.38;97.33
45463;SHT31;31209;49.456;11.134;2022-07-23T01:27:15;21.36;97.32
45463;SHT31;31209;49.456;11.134;2022-07-23T01:28:16;21.31;97.3
45463;SHT31;31209;49.456;11.134;2022-07-23T01:29:17;21.29;97.21
45463;SHT31;31209;49.456;11.134;2022-07-23T01:30:18;21.36;97.04
45463;SHT31;31209;49.456;11.134;2022-07-23T01:31:19;21.32;96.51
45463;SHT31;31209;49.456;11.134;2022-07-23T01:32:20;21.25;96.92
45463;SHT31;31209;49.456;11.134;2022-07-23T01:33:20;21.21;96.93
45463;SHT31;31209;49.456;11.134;2022-07-23T01:34:21;21.21;96.89
45463;SHT31;31209;49.456;11.134;2022-07-23T01:35:22;21.18;96.78
45463;SHT31;31209;49.456;11.134;2022-07-23T01:36:23;21.19;96.61
45463;SHT31;31209;49.456;11.134;2022-07-23T01:37:24;21.21;96.29
45463;SHT31;31209;49.456;11.134;2022-07-23T01:38:25;21.15;96.14
45463;SHT31;31209;49.456;11.134;2022-07-23T01:39:26;21.14;95.89
45463;SHT31;31209;49.456;11.134;2022-07-23T01:40:27;21.17;95.95
45463;SHT31;31209;49.456;11.134;2022-07-23T01:41:27;21.17;95.98
45463;SHT31;31209;49.456;11.134;2022-07-23T01:42:28;21.17;95.94
45463;SHT31;31209;49.456;11.134;2022-07-23T01:43:29;21.22;96.0
45463;SHT31;31209;49.456;11.134;2022-07-23T01:44:30;21.27;96.05
45463;SHT31;31209;49.456;11.134;2022-07-23T01:45:31;21.32;96.12
45463;SHT31;31209;49.456;11.134;2022-07-23T01:46:32;21.35;96.06
45463;SHT31;31209;49.456;11.134;2022-07-23T01:47:33;21.32;95.95
45463;SHT31;31209;49.456;11.134;2022-07-23T01:48:34;21.25;95.95
45463;SHT31;31209;49.456;11.134;2022-07-23T01:49:35;21.24;96.12
45463;SHT31;31209;49.456;11.134;2022-07-23T01:50:36;21.25;96.31
45463;SHT31;31209;49.456;11.134;2022-07-23T01:51:36;21.27;96.37
45463;SHT31;31209;49.456;11.134;2022-07-23T01:52:37;21.22;96.52
45463;SHT31;31209;49.456;11.134;2022-07-23T01:53:38;21.19;96.72
45463;SHT31;31209;49.456;11.134;2022-07-23T01:54:39;21.22;96.76
45463;SHT31;31209;49.456;11.134;2022-07-23T01:55:40;21.21;96.82
45463;SHT31;31209;49.456;11.134;2022-07-23T01:56:41;21.24;96.69
45463;SHT31;31209;49.456;11.134;2022-07-23T01:57:42;21.18;96.79
45463;SHT31;31209;49.456;11.134;2022-07-23T01:58:43;21.19;96.8
45463;SHT31;31209;49.456;11.134;2022-07-23T01:59:44;21.19;97.05
45463;SHT31;31209;49.456;11.134;2022-07-23T02:00:45;21.22;97.12
45463;SHT31;31209;49.456;11.134;2022-07-23T02:01:45;21.22;97.06
45463;SHT31;31209;49.456;11.134;2022-07-23T02:02:46;21.28;96.91
45463;SHT31;31209;49.456;11.134;2022-07-23T02:03:47;21.31;96.64
45463;SHT31;31209;49.456;11.134;2022-07-23T02:04:48;21.31;96.7
45463;SHT31;31209;49.456;11.134;2022-07-23T02:05:49;21.31;96.65
45463;SHT31;31209;49.456;11.134;2022-07-23T02:06:50;21.22;96.67
45463;SHT31;31209;49.456;11.134;2022-07-23T02:07:51;21.21;96.87
45463;SHT31;31209;49.456;11.134;2022-07-23T02:08:52;21.24;96.89
45463;SHT31;31209;49.456;11.134;2022-07-23T02:09:52;21.24;97.0
45463;SHT31;31209;49.456;11.134;2022-07-23T02:10:53;21.28;96.88
45463;SHT31;31209;49.456;11.134;2022-07-23T02:11:54;21.25;96.78
45463;SHT31;31209;49.456;11.134;2022-07-23T02:12:55;21.24;96.8
45463;SHT31;31209;49.456;11.134;2022-07-23T02:13:56;21.22;96.83
45463;SHT31;31209;49.456;11.134;2022-07-23T02:14:57;21.24;96.82
45463;SHT31;31209;49.456;11.134;2022-07-23T02:15:58;21.22;96.76
45463;SHT31;31209;49.456;11.134;2022-07-23T02:16:59;21.24;96.77
45463;SHT31;31209;49.456;11.134;2022-07-23T02:18:00;21.25;96.82
45463;SHT31;31209;49.456;11.134;2022-07-23T02:19:00;21.29;96.84
45463;SHT31;31209;49.456;11.134;2022-07-23T02:20:01;21.25;96.84
45463;SHT31;31209;49.456;11.134;2022-07-23T02:21:03;21.25;96.85
45463;SHT31;31209;49.456;11.134;2022-07-23T02:22:03;21.27;96.81
45463;SHT31;31209;49.456;11.134;2022-07-23T02:23:05;21.28;96.71
45463;SHT31;31209;49.456;11.134;2022-07-23T02:24:06;21.24;96.81
45463;SHT31;31209;49.456;11.134;2022-07-23T02:25:08;21.24;96.8
45463;SHT31;31209;49.456;11.134;2022-07-23T02:26:08;21.22;96.86
45463;SHT31;31209;49.456;11.134;2022-07-23T02:27:09;21.21;96.91
45463;SHT31;31209;49.456;11.134;2022-07-23T02:28:10;21.22;96.88
45463;SHT31;31209;49.456;11.134;2022-07-23T02:29:11;21.24;96.86
45463;SHT31;31209;49.456;11.134;2022-07-23T02:30:12;21.15;96.97
45463;SHT31;31209;49.456;11.134;2022-07-23T02:31:13;21.15;97.03
45463;SHT31;31209;49.456;11.134;2022-07-23T02:32:14;21.12;97.07
45463;SHT31;31209;49.456;11.134;2022-07-23T02:33:15;21.06;97.25
45463;SHT31;31209;49.456;11.134;2022-07-23T02:34:16;21.05;97.4
45463;SHT31;31209;49.456;11.134;2022-07-23T02:35:16;21.05;97.37
45463;SHT31;31209;49.456;11.134;2022-07-23T02:36:17;21.08;97.18
45463;SHT31;31209;49.456;11.134;2022-07-23T02:37:18;21.09;97.17
45463;SHT31;31209;49.456;11.134;2022-07-23T02:38:19;21.04;97.24
45463;SHT31;31209;49.456;11.134;2022-07-23T02:39:20;21.05;97.36
45463;SHT31;31209;49.456;11.134;2022-07-23T02:40:20;21.08;97.34
45463;SHT31;31209;49.456;11.134;2022-07-23T02:41:21;21.06;97.35
45463;SHT31;31209;49.456;11.134;2022-07-23T02:42:24;21.08;97.37
45463;SHT31;31209;49.456;11.134;2022-07-23T02:43:25;21.12;97.25
45463;SHT31;31209;49.456;11.134;2022-07-23T02:44:26;21.12;97.09
45463;SHT31;31209;49.456;11.134;2022-07-23T02:45:27;21.09;97.03
45463;SHT31;31209;49.456;11.134;2022-07-23T02:46:28;21.14;97.04
45463;SHT31;31209;49.456;11.134;2022-07-23T02:47:29;21.21;97.08
45463;SHT31;31209;49.456;11.134;2022-07-23T02:48:30;21.21;97.05
45463;SHT31;31209;49.456;11.134;2022-07-23T02:49:31;21.22;97.06
45463;SHT31;31209;49.456;11.134;2022-07-23T02:50:31;21.25;96.88
45463;SHT31;31209;49.456;11.134;2022-07-23T02:51:32;21.21;96.86
45463;SHT31;31209;49.456;11.134;2022-07-23T02:52:33;21.15;96.73
45463;SHT31;31209;49.456;11.134;2022-07-23T02:53:34;21.11;96.71
45463;SHT31;31209;49.456;11.134;2022-07-23T02:54:35;21.02;96.84
45463;SHT31;31209;49.456;11.134;2022-07-23T02:55:36;21.01;96.86
45463;SHT31;31209;49.456;11.134;2022-07-23T02:56:37;20.99;96.8
45463;SHT31;31209;49.456;11.134;2022-07-23T02:57:38;20.97;96.92
45463;SHT31;31209;49.456;11.134;2022-07-23T02:58:39;20.98;96.95
45463;SHT31;31209;49.456;11.134;2022-07-23T02:59:40;20.89;96.94
45463;SHT31;31209;49.456;11.134;2022-07-23T03:00:40;20.78;97.05
45463;SHT31;31209;49.456;11.134;2022-07-23T03:01:41;20.75;97.05
45463;SHT31;31209;49.456;11.134;2022-07-23T03:02:42;20.77;97.0
45463;SHT31;31209;49.456;11.134;2022-07-23T03:03:43;20.7;97.01
45463;SHT31;31209;49.456;11.134;2022-07-23T03:04:44;20.71;97.09
45463;SHT31;31209;49.456;11.134;2022-07-23T03:05:45;20.7;97.16
45463;SHT31;31209;49.456;11.134;2022-07-23T03:06:45;20.68;97.36
45463;SHT31;31209;49.456;11.134;2022-07-23T03:07:46;20.7;97.36
45463;SHT31;31209;49.456;11.134;2022-07-23T03:08:47;20.71;97.35
45463;SHT31;31209;49.456;11.134;2022-07-23T03:09:48;20.67;97.43
45463;SHT31;31209;49.456;11.134;2022-07-23T03:10:48;20.67;97.43
45463;SHT31;31209;49.456;11.134;2022-07-23T03:11:50;20.71;97.42
45463;SHT31;31209;49.456;11.134;2022-07-23T03:12:51;20.67;97.4
45463;SHT31;31209;49.456;11.134;2022-07-23T03:13:52;20.65;97.37
45463;SHT31;31209;49.456;11.134;2022-07-23T03:14:53;20.6;97.51
45463;SHT31;31209;49.456;11.134;2022-07-23T03:15:53;20.63;97.39
45463;SHT31;31209;49.456;11.134;2022-07-23T03:16:55;20.61;97.24
45463;SHT31;31209;49.456;11.134;2022-07-23T03:17:56;20.58;97.18
45463;SHT31;31209;49.456;11.134;2022-07-23T03:18:57;20.61;97.1
45463;SHT31;31209;49.456;11.134;2022-07-23T03:19:57;20.6;97.06
45463;SHT31;31209;49.456;11.134;2022-07-23T03:20:59;20.61;97.1
45463;SHT31;31209;49.456;11.134;2022-07-23T03:22:00;20.61;97.02
45463;SHT31;31209;49.456;11.134;2022-07-23T03:23:00;20.65;96.95
45463;SHT31;31209;49.456;11.134;2022-07-23T03:24:02;20.68;96.95
45463;SHT31;31209;49.456;11.134;2022-07-23T03:25:03;20.67;96.99
45463;SHT31;31209;49.456;11.134;2022-07-23T03:26:04;20.7;97.08
45463;SHT31;31209;49.456;11.134;2022-07-23T03:27:05;20.71;97.03
45463;SHT31;31209;49.456;11.134;2022-07-23T03:28:06;20.67;96.84
45463;SHT31;31209;49.456;11.134;2022-07-23T03:29:07;20.55;96.77
45463;SHT31;31209;49.456;11.134;2022-07-23T03:30:09;20.53;96.84
45463;SHT31;31209;49.456;11.134;2022-07-23T03:31:09;20.51;96.88
45463;SHT31;31209;49.456;11.134;2022-07-23T03:32:10;20.45;97.0
45463;SHT31;31209;49.456;11.134;2022-07-23T03:33:11;20.45;97.05
45463;SHT31;31209;49.456;11.134;2022-07-23T03:34:12;20.5;97.01
45463;SHT31;31209;49.456;11.134;2022-07-23T03:35:13;20.5;96.99
45463;SHT31;31209;49.456;11.134;2022-07-23T03:36:14;20.44;97.0
45463;SHT31;31209;49.456;11.134;2022-07-23T03:37:15;20.4;97.13
45463;SHT31;31209;49.456;11.134;2022-07-23T03:38:16;20.33;97.26
45463;SHT31;31209;49.456;11.134;2022-07-23T03:39:17;20.38;97.3
45463;SHT31;31209;49.456;11.134;2022-07-23T03:40:18;20.4;97.34
45463;SHT31;31209;49.456;11.134;2022-07-23T03:41:19;20.4;97.31
45463;SHT31;31209;49.456;11.134;2022-07-23T03:42:20;20.4;97.24
45463;SHT31;31209;49.456;11.134;2022-07-23T03:43:21;20.35;97.26
45463;SHT31;31209;49.456;11.134;2022-07-23T03:44:22;20.31;97.41
45463;SHT31;31209;49.456;11.134;2022-07-23T03:45:23;20.29;97.49
45463;SHT31;31209;49.456;11.134;2022-07-23T03:46:24;20.17;97.64
45463;SHT31;31209;49.456;11.134;2022-07-23T03:47:25;20.22;97.71
45463;SHT31;31209;49.456;11.134;2022-07-23T03:48:25;20.23;97.68
45463;SHT31;31209;49.456;11.134;2022-07-23T03:49:26;20.3;97.57
45463;SHT31;31209;49.456;11.134;2022-07-23T03:50:27;20.27;97.53
45463;SHT31;31209;49.456;11.134;2022-07-23T03:51:28;20.24;97.64
45463;SHT31;31209;49.456;11.134;2022-07-23T03:52:28;20.22;97.74
45463;SHT31;31209;49.456;11.134;2022-07-23T03:53:29;20.19;97.86
45463;SHT31;31209;49.456;11.134;2022-07-23T03:54:30;20.19;97.92
45463;SHT31;31209;49.456;11.134;2022-07-23T03:55:31;20.2;97.88
45463;SHT31;31209;49.456;11.134;2022-07-23T03:56:32;20.27;97.86
45463;SHT31;31209;49.456;11.134;2022-07-23T03:57:32;20.27;97.85
45463;SHT31;31209;49.456;11.134;2022-07-23T03:58:33;20.27;97.78
45463;SHT31;31209;49.456;11.134;2022-07-23T03:59:34;20.26;97.7
45463;SHT31;31209;49.456;11.134;2022-07-23T04:00:35;20.3;97.75
45463;SHT31;31209;49.456;11.134;2022-07-23T04:01:36;20.33;97.69
45463;SHT31;31209;49.456;11.134;2022-07-23T04:02:37;20.37;97.48
45463;SHT31;31209;49.456;11.134;2022-07-23T04:03:38;20.35;97.42
45463;SHT31;31209;49.456;11.134;2022-07-23T04:04:39;20.35;97.44
45463;SHT31;31209;49.456;11.134;2022-07-23T04:05:39;20.37;97.34
45463;SHT31;31209;49.456;11.134;2022-07-23T04:06:40;20.41;97.19
45463;SHT31;31209;49.456;11.134;2022-07-23T04:07:41;20.4;97.19
45463;SHT31;31209;49.456;11.134;2022-07-23T04:08:42;20.45;97.1
45463;SHT31;31209;49.456;11.134;2022-07-23T04:09:43;20.43;97.13
45463;SHT31;31209;49.456;11.134;2022-07-23T04:10:44;20.41;96.98
45463;SHT31;31209;49.456;11.134;2022-07-23T04:11:45;20.33;96.89
45463;SHT31;31209;49.456;11.134;2022-07-23T04:12:46;20.34;97.14
45463;SHT31;31209;49.456;11.134;2022-07-23T04:13:47;20.31;97.0
45463;SHT31;31209;49.456;11.134;2022-07-23T04:14:47;20.31;96.76
45463;SHT31;31209;49.456;11.134;2022-07-23T04:15:48;20.34;96.79
45463;SHT31;31209;49.456;11.134;2022-07-23T04:16:49;20.35;96.73
45463;SHT31;31209;49.456;11.134;2022-07-23T04:17:50;20.34;96.72
45463;SHT31;31209;49.456;11.134;2022-07-23T04:18:51;20.35;96.71
45463;SHT31;31209;49.456;11.134;2022-07-23T04:19:52;20.35;96.5
45463;SHT31;31209;49.456;11.134;2022-07-23T04:20:53;20.35;96.51
45463;SHT31;31209;49.456;11.134;2022-07-23T04:21:53;20.41;96.46
45463;SHT31;31209;49.456;11.134;2022-07-23T04:22:54;20.45;96.38
45463;SHT31;31209;49.456;11.134;2022-07-23T04:23:55;20.45;96.31
45463;SHT31;31209;49.456;11.134;2022-07-23T04:24:56;20.49;96.24
45463;SHT31;31209;49.456;11.134;2022-07-23T04:25:57;20.5;96.13
45463;SHT31;31209;49.456;11.134;2022-07-23T04:26:58;20.49;96.1
45463;SHT31;31209;49.456;11.134;2022-07-23T04:27:59;20.44;96.1
45463;SHT31;31209;49.456;11.134;2022-07-23T04:28:59;20.51;96.0
45463;SHT31;31209;49.456;11.134;2022-07-23T04:30:00;20.5;95.9
45463;SHT31;31209;49.456;11.134;2022-07-23T04:31:01;20.5;95.78
45463;SHT31;31209;49.456;11.134;2022-07-23T04:32:02;20.57;95.56
45463;SHT31;31209;49.456;11.134;2022-07-23T04:33:03;20.53;95.34
45463;SHT31;31209;49.456;11.134;2022-07-23T04:34:04;20.55;95.19
45463;SHT31;31209;49.456;11.134;2022-07-23T04:35:05;20.55;95.37
45463;SHT31;31209;49.456;11.134;2022-07-23T04:36:07;20.65;95.39
45463;SHT31;31209;49.456;11.134;2022-07-23T04:37:08;20.67;95.24
45463;SHT31;31209;49.456;11.134;2022-07-23T04:38:08;20.7;95.07
45463;SHT31;31209;49.456;11.134;2022-07-23T04:39:09;20.74;94.81
45463;SHT31;31209;49.456;11.134;2022-07-23T04:40:11;20.75;94.74
45463;SHT31;31209;49.456;11.134;2022-07-23T04:41:12;20.77;94.59
45463;SHT31;31209;49.456;11.134;2022-07-23T04:42:13;20.74;94.53
45463;SHT31;31209;49.456;11.134;2022-07-23T04:43:14;20.81;94.43
45463;SHT31;31209;49.456;11.134;2022-07-23T04:44:15;20.8;94.24
45463;SHT31;31209;49.456;11.134;2022-07-23T04:45:15;20.82;94.31
45463;SHT31;31209;49.456;11.134;2022-07-23T04:46:16;20.85;94.18
45463;SHT31;31209;49.456;11.134;2022-07-23T04:47:17;20.89;94.19
45463;SHT31;31209;49.456;11.134;2022-07-23T04:48:18;20.88;94.1
45463;SHT31;31209;49.456;11.134;2022-07-23T04:49:19;20.92;93.72
45463;SHT31;31209;49.456;11.134;2022-07-23T04:50:19;20.95;93.51
45463;SHT31;31209;49.456;11.134;2022-07-23T04:51:20;20.97;93.52
45463;SHT31;31209;49.456;11.134;2022-07-23T04:52:21;20.99;93.51
45463;SHT31;31209;49.456;11.134;2022-07-23T04:53:22;21.04;93.51
45463;SHT31;31209;49.456;11.134;2022-07-23T04:54:23;21.09;93.44
45463;SHT31;31209;49.456;11.134;2022-07-23T04:55:24;21.12;93.06
45463;SHT31;31209;49.456;11.134;2022-07-23T04:56:25;21.14;92.85
45463;SHT31;31209;49.456;11.134;2022-07-23T04:57:26;21.17;92.85
45463;SHT31;31209;49.456;11.134;2022-07-23T04:58:27;21.19;92.79
45463;SHT31;31209;49.456;11.134;2022-07-23T04:59:28;21.25;92.89
45463;SHT31;31209;49.456;11.134;2022-07-23T05:00:28;21.28;92.64
45463;SHT31;31209;49.456;11.134;2022-07-23T05:01:29;21.29;92.6
45463;SHT31;31209;49.456;11.134;2022-07-23T05:02:30;21.36;92.66
45463;SHT31;31209;49.456;11.134;2022-07-23T05:03:31;21.39;92.75
45463;SHT31;31209;49.456;11.134;2022-07-23T05:04:32;21.39;92.75
45463;SHT31;31209;49.456;11.134;2022-07-23T05:05:33;21.36;92.37
45463;SHT31;31209;49.456;11.134;2022-07-23T05:06:33;21.39;92.29
45463;SHT31;31209;49.456;11.134;2022-07-23T05:07:34;21.39;92.18
45463;SHT31;31209;49.456;11.134;2022-07-23T05:08:35;21.46;92.38
45463;SHT31;31209;49.456;11.134;2022-07-23T05:09:36;21.46;92.2
45463;SHT31;31209;49.456;11.134;2022-07-23T05:10:37;21.45;91.76
45463;SHT31;31209;49.456;11.134;2022-07-23T05:11:37;21.51;92.01
45463;SHT31;31209;49.456;11.134;2022-07-23T05:12:40;21.57;92.14
45463;SHT31;31209;49.456;11.134;2022-07-23T05:13:40;21.57;91.82
45463;SHT31;31209;49.456;11.134;2022-07-23T05:14:41;21.63;91.83
45463;SHT31;31209;49.456;11.134;2022-07-23T05:15:42;21.64;91.9
45463;SHT31;31209;49.456;11.134;2022-07-23T05:16:43;21.67;91.89
45463;SHT31;31209;49.456;11.134;2022-07-23T05:17:44;21.67;91.68
45463;SHT31;31209;49.456;11.134;2022-07-23T05:18:45;21.64;91.41
45463;SHT31;31209;49.456;11.134;2022-07-23T05:19:46;21.7;91.27
45463;SHT31;31209;49.456;11.134;2022-07-23T05:20:47;21.67;91.32
45463;SHT31;31209;49.456;11.134;2022-07-23T05:21:47;21.67;91.32
45463;SHT31;31209;49.456;11.134;2022-07-23T05:22:48;21.73;91.34
45463;SHT31;31209;49.456;11.134;2022-07-23T05:23:49;21.75;91.15
45463;SHT31;31209;49.456;11.134;2022-07-23T05:24:50;21.82;91.05
45463;SHT31;31209;49.456;11.134;2022-07-23T05:25:51;21.84;90.79
45463;SHT31;31209;49.456;11.134;2022-07-23T05:26:51;21.87;90.81
45463;SHT31;31209;49.456;11.134;2022-07-23T05:27:52;21.9;90.79
45463;SHT31;31209;49.456;11.134;2022-07-23T05:28:54;21.96;90.77
45463;SHT31;31209;49.456;11.134;2022-07-23T05:29:54;21.97;90.64
45463;SHT31;31209;49.456;11.134;2022-07-23T05:30:55;22.02;90.59
45463;SHT31;31209;49.456;11.134;2022-07-23T05:31:56;22.06;90.4
45463;SHT31;31209;49.456;11.134;2022-07-23T05:32:57;22.13;90.5
45463;SHT31;31209;49.456;11.134;2022-07-23T05:33:57;22.17;90.31
45463;SHT31;31209;49.456;11.134;2022-07-23T05:34:58;22.21;90.09
45463;SHT31;31209;49.456;11.134;2022-07-23T05:36:00;22.21;90.26
45463;SHT31;31209;49.456;11.134;2022-07-23T05:37:01;22.26;90.32
45463;SHT31;31209;49.456;11.134;2022-07-23T05:38:02;22.31;90.28
45463;SHT31;31209;49.456;11.134;2022-07-23T05:39:03;22.36;90.28
45463;SHT31;31209;49.456;11.134;2022-07-23T05:40:07;22.36;90.22
45463;SHT31;31209;49.456;11.134;2022-07-23T05:41:08;22.34;89.99
45463;SHT31;31209;49.456;11.134;2022-07-23T05:42:09;22.38;89.74
45463;SHT31;31209;49.456;11.134;2022-07-23T05:43:09;22.44;89.66
45463;SHT31;31209;49.456;11.134;2022-07-23T05:44:10;22.54;89.63
45463;SHT31;31209;49.456;11.134;2022-07-23T05:45:11;22.51;89.74
45463;SHT31;31209;49.456;11.134;2022-07-23T05:46:12;22.55;89.65
45463;SHT31;31209;49.456;11.134;2022-07-23T05:47:13;22.64;89.59
45463;SHT31;31209;49.456;11.134;2022-07-23T05:48:13;22.7;89.59
45463;SHT31;31209;49.456;11.134;2022-07-23T05:49:14;22.71;89.73
45463;SHT31;31209;49.456;11.134;2022-07-23T05:50:16;22.71;89.28
45463;SHT31;31209;49.456;11.134;2022-07-23T05:51:19;22.74;89.06
45463;SHT31;31209;49.456;11.134;2022-07-23T05:52:20;22.84;88.98
45463;SHT31;31209;49.456;11.134;2022-07-23T05:53:21;22.88;89.1
45463;SHT31;31209;49.456;11.134;2022-07-23T05:54:22;22.97;88.93
45463;SHT31;31209;49.456;11.134;2022-07-23T05:55:23;23.08;89.04
45463;SHT31;31209;49.456;11.134;2022-07-23T05:56:24;23.16;88.92
45463;SHT31;31209;49.456;11.134;2022-07-23T05:57:24;23.13;88.78
45463;SHT31;31209;49.456;11.134;2022-07-23T05:58:25;23.18;88.68
45463;SHT31;31209;49.456;11.134;2022-07-23T05:59:26;23.28;88.58
45463;SHT31;31209;49.456;11.134;2022-07-23T06:00:27;23.33;88.6
45463;SHT31;31209;49.456;11.134;2022-07-23T06:01:28;23.35;88.26
45463;SHT31;31209;49.456;11.134;2022-07-23T06:02:29;23.42;88.5
45463;SHT31;31209;49.456;11.134;2022-07-23T06:03:30;23.45;88.54
45463;SHT31;31209;49.456;11.134;2022-07-23T06:04:31;23.45;88.7
45463;SHT31;31209;49.456;11.134;2022-07-23T06:05:32;23.5;88.44
45463;SHT31;31209;49.456;11.134;2022-07-23T06:06:33;23.5;88.36
45463;SHT31;31209;49.456;11.134;2022-07-23T06:07:34;23.52;88.2
45463;SHT31;31209;49.456;11.134;2022-07-23T06:08:34;23.57;88.1
45463;SHT31;31209;49.456;11.134;2022-07-23T06:09:35;23.65;88.06
45463;SHT31;31209;49.456;11.134;2022-07-23T06:10:36;23.57;88.03
45463;SHT31;31209;49.456;11.134;2022-07-23T06:11:38;23.6;87.99
45463;SHT31;31209;49.456;11.134;2022-07-23T06:12:39;23.56;87.68
45463;SHT31;31209;49.456;11.134;2022-07-23T06:13:40;23.6;87.67
45463;SHT31;31209;49.456;11.134;2022-07-23T06:14:40;23.66;87.35
45463;SHT31;31209;49.456;11.134;2022-07-23T06:15:41;23.67;87.27
45463;SHT31;31209;49.456;11.134;2022-07-23T06:16:42;23.73;87.42
45463;SHT31;31209;49.456;11.134;2022-07-23T06:17:43;23.75;87.36
45463;SHT31;31209;49.456;11.134;2022-07-23T06:18:44;23.73;87.19
45463;SHT31;31209;49.456;11.134;2022-07-23T06:19:44;23.79;87.27
45463;SHT31;31209;49.456;11.134;2022-07-23T06:20:45;23.77;87.04